Time;durP1;ratioP1;P1;durP2;ratioP2;P2;SDS_P1;SDS_P2;PMS_P1;PMS_P2;Temp;Humidity;BMP_temperature;BMP_pressure;BME280_temperature;BME280_humidity;BME280_pressure;Samples;Min_cycle;Max_cycle;Signal;HPM_P1;HPM_P2
2022/05/16 00:01:56;;;;;;;4.80;2.28;;;21.80;51.90;;;;;;5090440;28;20178;-64
2022/05/16 00:04:21;;;;;;;3.13;1.90;;;21.80;51.90;;;;;;5091394;28;20181;-64
2022/05/16 00:06:47;;;;;;;2.85;2.45;;;21.80;51.90;;;;;;5090866;28;20591;-64
2022/05/16 00:09:12;;;;;;;3.58;2.53;;;21.80;51.90;;;;;;5090727;28;20176;-65
2022/05/16 00:11:38;;;;;;;2.28;1.80;;;21.80;51.90;;;;;;5091102;28;20180;-66
2022/05/16 00:14:03;;;;;;;3.45;2.10;;;21.80;51.90;;;;;;5090968;28;20169;-66
2022/05/16 00:16:29;;;;;;;3.70;2.15;;;21.80;51.90;;;;;;5090346;28;20651;-66
2022/05/16 00:18:55;;;;;;;3.30;2.28;;;21.80;51.90;;;;;;5090872;28;20219;-66
2022/05/16 00:21:20;;;;;;;4.18;2.30;;;21.70;51.90;;;;;;5093139;28;20673;-66
2022/05/16 00:23:46;;;;;;;3.30;2.05;;;21.80;52.00;;;;;;5093887;28;20170;-66
2022/05/16 00:26:11;;;;;;;2.63;2.17;;;21.70;51.90;;;;;;5094772;28;20173;-65
2022/05/16 00:28:37;;;;;;;3.25;1.92;;;21.70;52.00;;;;;;5094414;28;20197;-65
2022/05/16 00:31:03;;;;;;;3.50;2.33;;;21.70;52.00;;;;;;5094248;28;20273;-64
2022/05/16 00:33:29;;;;;;;2.20;1.80;;;21.70;52.10;;;;;;5094749;28;20274;-65
2022/05/16 00:35:54;;;;;;;3.53;2.05;;;21.70;52.00;;;;;;5094531;28;20303;-64
2022/05/16 00:38:20;;;;;;;3.40;2.08;;;21.70;52.10;;;;;;5094003;28;20222;-65
2022/05/16 00:40:45;;;;;;;3.45;2.00;;;21.70;52.10;;;;;;5094267;28;20185;-65
2022/05/16 00:43:11;;;;;;;5.03;2.67;;;21.70;52.00;;;;;;5094548;28;20719;-65
2022/05/16 00:45:37;;;;;;;2.95;2.08;;;21.70;52.00;;;;;;5093415;28;20602;-65
2022/05/16 00:48:03;;;;;;;3.55;1.83;;;21.70;52.10;;;;;;5094660;28;20265;-65
2022/05/16 00:50:28;;;;;;;3.38;2.17;;;21.70;52.20;;;;;;5094605;28;20174;-65
2022/05/16 00:52:54;;;;;;;2.92;2.10;;;21.70;52.20;;;;;;5092073;28;20623;-66
2022/05/16 00:55:25;;;;;;;3.35;2.40;;;21.70;52.00;;;;;;5093241;28;20166;-66
2022/05/16 00:57:54;;;;;;;3.45;2.38;;;21.70;52.20;;;;;;5091858;28;20217;-66
2022/05/16 01:00:22;;;;;;;4.80;2.75;;;21.70;52.00;;;;;;5093156;28;20186;-66
2022/05/16 01:05:47;;;;;;;3.83;1.85;;;21.60;52.00;;;;;;5091848;28;20220;-65
2022/05/16 01:08:17;;;;;;;3.92;2.50;;;21.60;52.70;;;;;;5094155;28;20169;-65
2022/05/16 01:10:42;;;;;;;5.18;2.50;;;21.60;52.10;;;;;;5092835;28;20195;-66
2022/05/16 01:13:08;;;;;;;3.00;2.28;;;21.60;52.10;;;;;;5092210;28;20181;-67
2022/05/16 01:15:40;;;;;;;3.00;2.20;;;21.60;52.10;;;;;;5093925;28;20256;-66
2022/05/16 01:18:07;;;;;;;2.97;2.15;;;21.60;52.10;;;;;;5093850;28;20338;-66
2022/05/16 01:20:55;;;;;;;4.40;2.08;;;21.60;52.00;;;;;;5093183;28;20218;-67
2022/05/16 01:23:21;;;;;;;3.95;2.20;;;21.60;52.10;;;;;;5092654;28;20647;-67
2022/05/16 01:25:48;;;;;;;2.38;2.08;;;21.60;52.20;;;;;;5091716;28;20178;-66
2022/05/16 01:28:15;;;;;;;3.35;2.50;;;21.60;52.10;;;;;;5092479;28;20170;-66
2022/05/16 01:30:41;;;;;;;3.58;2.35;;;21.60;52.10;;;;;;5091819;28;20629;-65
2022/05/16 01:33:07;;;;;;;2.15;1.60;;;21.60;52.10;;;;;;5091734;28;20692;-66
2022/05/16 01:35:33;;;;;;;2.45;2.00;;;21.60;52.20;;;;;;5093866;28;20184;-65
2022/05/16 01:40:43;;;;;;;3.10;1.98;;;21.60;52.30;;;;;;5092705;28;20173;-65
2022/05/16 01:43:09;;;;;;;3.05;2.20;;;21.60;52.10;;;;;;5093529;28;20174;-66
2022/05/16 01:45:35;;;;;;;2.88;2.08;;;21.60;52.20;;;;;;5093132;28;20249;-66
2022/05/16 01:48:01;;;;;;;2.05;1.65;;;21.60;52.20;;;;;;5092747;28;20277;-66
2022/05/16 01:50:27;;;;;;;2.55;2.15;;;21.50;52.20;;;;;;5093416;28;20645;-66
2022/05/16 01:52:52;;;;;;;2.63;1.92;;;21.50;52.20;;;;;;5093224;28;20185;-66
2022/05/16 01:55:18;;;;;;;2.35;1.95;;;21.50;52.20;;;;;;5092464;28;20170;-67
2022/05/16 01:57:46;;;;;;;2.47;2.03;;;21.50;52.20;;;;;;5092864;28;20672;-66
2022/05/16 02:00:13;;;;;;;2.80;2.05;;;21.50;52.20;;;;;;5093091;28;20205;-65
2022/05/16 02:02:42;;;;;;;3.17;2.17;;;21.50;52.90;;;;;;5092200;28;20180;-66
2022/05/16 02:05:12;;;;;;;2.38;1.92;;;21.50;52.20;;;;;;5093125;28;20562;-66
2022/05/16 02:07:37;;;;;;;4.95;2.53;;;21.50;52.30;;;;;;5092659;28;20633;-65
2022/05/16 02:10:06;;;;;;;4.03;2.28;;;21.50;52.40;;;;;;5092364;28;20173;-66
2022/05/16 02:12:31;;;;;;;2.53;1.90;;;21.50;52.30;;;;;;5092744;28;20176;-67
2022/05/16 02:14:56;;;;;;;1.95;1.70;;;21.50;52.30;;;;;;5092803;28;20594;-67
2022/05/16 02:17:22;;;;;;;3.75;2.60;;;21.50;52.30;;;;;;5091898;28;20235;-66
2022/05/16 02:19:47;;;;;;;3.33;2.45;;;21.50;52.30;;;;;;5092543;28;20212;-67
2022/05/16 02:24:57;;;;;;;2.85;2.08;;;21.50;52.30;;;;;;5093580;28;20257;-66
2022/05/16 02:27:23;;;;;;;3.67;2.03;;;21.50;52.40;;;;;;5093730;28;20245;-67
2022/05/16 02:29:48;;;;;;;3.47;1.90;;;21.50;52.40;;;;;;5092972;28;20256;-66
2022/05/16 02:32:14;;;;;;;3.40;2.40;;;21.40;52.40;;;;;;5092588;28;20277;-65
2022/05/16 02:34:40;;;;;;;3.80;2.33;;;21.40;52.40;;;;;;5093564;28;20199;-66
2022/05/16 02:37:06;;;;;;;2.10;1.90;;;21.40;52.40;;;;;;5092838;28;20664;-65
2022/05/16 02:39:32;;;;;;;3.40;2.35;;;21.40;52.40;;;;;;5093702;28;20188;-65
2022/05/16 02:41:57;;;;;;;3.35;2.17;;;21.40;52.40;;;;;;5093148;28;20609;-66
2022/05/16 02:44:23;;;;;;;2.55;2.35;;;21.40;52.40;;;;;;5093159;28;20186;-65
2022/05/16 02:46:48;;;;;;;2.60;2.03;;;21.40;52.40;;;;;;5093170;28;20221;-66
2022/05/16 02:49:14;;;;;;;3.50;1.92;;;21.40;52.40;;;;;;5093449;28;20173;-66
2022/05/16 02:51:39;;;;;;;2.83;1.88;;;21.40;52.40;;;;;;5092142;28;20236;-66
2022/05/16 02:54:05;;;;;;;2.78;1.80;;;21.40;52.50;;;;;;5093272;28;20173;-66
2022/05/16 02:56:31;;;;;;;2.50;1.95;;;21.40;52.50;;;;;;5093378;28;20260;-67
2022/05/16 02:58:56;;;;;;;3.13;1.80;;;21.40;52.50;;;;;;5092026;28;20221;-67
2022/05/16 03:01:22;;;;;;;3.65;2.10;;;21.40;53.20;;;;;;5093380;28;20165;-66
2022/05/16 03:03:47;;;;;;;2.53;1.67;;;21.40;52.50;;;;;;5092974;28;20193;-65
2022/05/16 03:06:13;;;;;;;3.30;1.92;;;21.40;53.20;;;;;;5091109;28;20217;-66
2022/05/16 03:08:39;;;;;;;2.90;2.10;;;21.40;52.60;;;;;;5092932;28;20170;-65
2022/05/16 03:11:04;;;;;;;3.47;2.10;;;21.40;52.60;;;;;;5092950;28;20181;-67
2022/05/16 03:13:31;;;;;;;1.98;1.80;;;21.50;52.60;;;;;;5092466;28;20166;-67
2022/05/16 03:15:57;;;;;;;3.58;1.77;;;21.40;52.60;;;;;;5092800;28;20182;-67
2022/05/16 03:18:23;;;;;;;3.03;2.17;;;21.40;52.60;;;;;;5092204;28;20308;-67
2022/05/16 03:20:52;;;;;;;3.95;2.03;;;21.30;52.50;;;;;;5092752;28;20183;-66
2022/05/16 03:23:18;;;;;;;2.70;1.67;;;21.30;52.50;;;;;;5092824;28;20174;-67
2022/05/16 03:25:43;;;;;;;2.60;1.80;;;21.40;52.60;;;;;;5091680;28;20694;-66
2022/05/16 03:28:09;;;;;;;2.70;2.15;;;21.30;52.60;;;;;;5092998;28;20178;-66
2022/05/16 03:30:35;;;;;;;1.92;1.63;;;21.30;52.60;;;;;;5092371;28;20173;-66
2022/05/16 03:33:00;;;;;;;2.78;1.90;;;21.30;52.60;;;;;;5092119;28;20590;-66
2022/05/16 03:35:26;;;;;;;2.17;1.85;;;21.30;52.60;;;;;;5092934;28;20583;-66
2022/05/16 03:37:51;;;;;;;2.95;2.20;;;21.30;52.60;;;;;;5092568;28;20202;-65
2022/05/16 03:43:01;;;;;;;2.95;1.70;;;21.30;52.60;;;;;;5092604;28;20180;-66
2022/05/16 03:45:27;;;;;;;2.10;1.85;;;21.30;52.60;;;;;;5092715;28;20248;-66
2022/05/16 03:47:52;;;;;;;3.03;2.15;;;21.30;52.60;;;;;;5091529;28;20515;-66
2022/05/16 03:50:18;;;;;;;3.05;2.05;;;21.30;52.60;;;;;;5092547;28;20174;-66
2022/05/16 03:52:44;;;;;;;2.38;1.95;;;21.30;52.60;;;;;;5091301;28;20247;-66
2022/05/16 03:55:14;;;;;;;2.22;2.03;;;21.30;52.60;;;;;;5092344;28;20166;-67
2022/05/16 03:57:41;;;;;;;3.20;2.10;;;21.30;52.60;;;;;;5096339;28;20656;-66
2022/05/16 04:00:09;;;;;;;2.90;2.10;;;21.30;52.60;;;;;;5096877;28;20176;-66
2022/05/16 04:02:38;;;;;;;3.97;1.92;;;21.30;52.60;;;;;;5095449;28;20644;-65
2022/05/16 04:05:04;;;;;;;2.83;2.17;;;21.30;52.60;;;;;;5096369;28;20196;-65
2022/05/16 04:07:30;;;;;;;3.80;2.28;;;21.30;52.60;;;;;;5096512;28;20277;-65
2022/05/16 04:09:56;;;;;;;2.22;2.00;;;21.30;52.60;;;;;;5096119;28;20174;-66
2022/05/16 04:12:21;;;;;;;2.70;2.13;;;21.30;52.70;;;;;;5096506;28;20211;-66
2022/05/16 04:14:47;;;;;;;4.95;2.22;;;21.30;52.70;;;;;;5095405;28;20181;-67
2022/05/16 04:17:12;;;;;;;2.15;1.85;;;21.30;52.70;;;;;;5096055;28;20209;-67
2022/05/16 04:19:38;;;;;;;2.63;1.98;;;21.30;52.60;;;;;;5095875;28;20235;-66
2022/05/16 04:22:03;;;;;;;3.33;1.88;;;21.30;52.70;;;;;;5095445;28;20637;-67
2022/05/16 04:24:32;;;;;;;4.97;2.42;;;21.30;52.70;;;;;;5096359;28;20177;-67
2022/05/16 04:26:57;;;;;;;2.30;1.98;;;21.20;52.60;;;;;;5095809;28;20265;-66
2022/05/16 04:29:25;;;;;;;6.03;2.30;;;21.30;52.70;;;;;;5095575;28;20249;-67
2022/05/16 04:31:51;;;;;;;3.33;2.03;;;21.30;52.70;;;;;;5095807;28;20544;-65
2022/05/16 04:34:16;;;;;;;2.30;2.00;;;21.30;52.60;;;;;;5095818;28;20257;-65
2022/05/16 04:36:42;;;;;;;2.95;2.00;;;21.30;52.60;;;;;;5094797;28;20201;-66
2022/05/16 04:39:07;;;;;;;3.58;2.00;;;21.30;53.30;;;;;;5096033;28;20272;-65
2022/05/16 04:44:17;;;;;;;2.20;2.00;;;21.30;52.60;;;;;;5095240;28;20188;-65
2022/05/16 04:46:42;;;;;;;3.25;1.90;;;21.30;52.60;;;;;;5095410;28;20637;-65
2022/05/16 04:49:08;;;;;;;2.50;2.13;;;21.30;52.60;;;;;;5096007;28;20570;-66
2022/05/16 04:51:33;;;;;;;3.15;1.90;;;21.30;52.60;;;;;;5094861;28;20647;-66
2022/05/16 04:53:59;;;;;;;3.22;2.10;;;21.30;52.60;;;;;;5095557;28;20264;-66
2022/05/16 04:56:24;;;;;;;2.05;1.88;;;21.30;52.60;;;;;;5095694;28;20184;-66
2022/05/16 04:58:50;;;;;;;2.25;1.67;;;21.30;52.60;;;;;;5094423;28;20210;-65
2022/05/16 05:01:15;;;;;;;2.35;2.15;;;21.30;52.50;;;;;;5095474;28;20170;-66
2022/05/16 05:03:42;;;;;;;2.85;2.17;;;21.30;52.50;;;;;;5095061;28;20238;-65
2022/05/16 05:06:08;;;;;;;3.15;2.05;;;21.30;52.50;;;;;;5094281;28;20686;-65
2022/05/16 05:08:33;;;;;;;2.28;2.00;;;21.30;53.10;;;;;;5095387;28;20269;-65
2022/05/16 05:16:28;;;;;;;3.40;2.50;;;21.30;52.50;;;;;;5095301;28;20536;-66
2022/05/16 05:18:53;;;;;;;2.80;2.33;;;21.30;52.50;;;;;;5093040;28;20259;-66
2022/05/16 05:21:19;;;;;;;2.40;2.10;;;21.30;52.50;;;;;;5095164;28;20166;-67
2022/05/16 05:23:45;;;;;;;3.08;2.10;;;21.30;52.50;;;;;;5094807;28;20178;-66
2022/05/16 05:26:10;;;;;;;2.65;2.25;;;21.30;52.50;;;;;;5094251;28;20173;-66
2022/05/16 05:28:37;;;;;;;2.25;1.95;;;21.40;52.50;;;;;;5094626;28;20587;-66
2022/05/16 05:31:03;;;;;;;2.20;2.00;;;21.30;52.50;;;;;;5095124;28;20646;-65
2022/05/16 05:33:28;;;;;;;4.25;2.22;;;21.40;52.50;;;;;;5094346;28;20222;-65
2022/05/16 05:35:53;;;;;;;3.05;1.92;;;21.40;52.60;;;;;;5094591;28;20189;-65
2022/05/16 05:38:19;;;;;;;3.67;2.28;;;21.30;52.50;;;;;;5094762;28;20221;-66
2022/05/16 05:40:45;;;;;;;2.55;1.90;;;21.30;52.50;;;;;;5093545;28;20629;-65
2022/05/16 05:43:10;;;;;;;3.22;2.40;;;21.40;52.50;;;;;;5094716;28;20260;-64
2022/05/16 05:45:36;;;;;;;2.20;2.00;;;21.40;52.60;;;;;;5094510;28;20181;-66
2022/05/16 05:48:02;;;;;;;2.95;1.90;;;21.30;52.40;;;;;;5093868;28;20181;-65
2022/05/16 05:50:28;;;;;;;3.00;2.10;;;21.40;52.50;;;;;;5094577;28;20173;-66
2022/05/16 05:52:53;;;;;;;2.65;2.17;;;21.40;52.40;;;;;;5094407;28;20254;-67
2022/05/16 05:55:19;;;;;;;2.70;2.08;;;21.40;52.40;;;;;;5093415;28;20184;-66
2022/05/16 05:57:45;;;;;;;2.13;1.80;;;21.40;53.00;;;;;;5094020;28;20578;-66
2022/05/16 06:00:14;;;;;;;2.33;2.10;;;21.40;52.40;;;;;;5093535;28;20617;-65
2022/05/16 06:02:40;;;;;;;3.47;2.45;;;21.40;52.40;;;;;;5093770;28;20186;-64
2022/05/16 06:05:13;;;;;;;2.40;2.20;;;21.40;52.50;;;;;;5094397;28;20223;-65
2022/05/16 06:07:39;;;;;;;2.42;2.15;;;21.40;52.40;;;;;;5093009;28;20255;-65
2022/05/16 06:10:05;;;;;;;2.30;1.77;;;21.40;52.50;;;;;;5094154;28;20170;-66
2022/05/16 06:12:31;;;;;;;2.30;1.80;;;21.40;52.50;;;;;;5093919;28;20170;-66
2022/05/16 06:14:56;;;;;;;2.95;2.08;;;21.40;52.50;;;;;;5092843;28;20177;-67
2022/05/16 06:17:22;;;;;;;2.53;1.95;;;21.40;52.50;;;;;;5093815;28;20263;-67
2022/05/16 06:19:47;;;;;;;1.83;1.73;;;21.40;52.50;;;;;;5092839;28;20170;-66
2022/05/16 06:22:13;;;;;;;2.33;2.10;;;21.40;52.50;;;;;;5093139;28;20170;-66
2022/05/16 06:27:23;;;;;;;2.42;2.08;;;21.50;52.50;;;;;;5094104;28;20201;-66
2022/05/16 06:29:49;;;;;;;2.78;2.15;;;21.40;52.50;;;;;;5092900;28;20189;-65
2022/05/16 06:32:14;;;;;;;2.40;2.13;;;21.40;52.50;;;;;;5093804;28;20750;-64
2022/05/16 06:34:40;;;;;;;2.65;2.13;;;21.40;52.60;;;;;;5093505;28;20199;-64
2022/05/16 06:37:05;;;;;;;2.83;1.88;;;21.40;52.50;;;;;;5092698;28;20252;-65
2022/05/16 06:39:31;;;;;;;2.30;2.05;;;21.40;52.50;;;;;;5093519;28;20202;-70
2022/05/16 06:41:56;;;;;;;3.33;2.33;;;21.40;52.60;;;;;;5093428;28;20166;-70
2022/05/16 06:44:22;;;;;;;3.65;2.35;;;21.40;52.70;;;;;;5093068;28;20174;-68
2022/05/16 06:46:48;;;;;;;6.07;2.50;;;21.40;53.00;;;;;;5093023;28;20170;-67
2022/05/16 06:49:13;;;;;;;4.38;2.22;;;21.40;52.80;;;;;;5093580;28;20196;-68
2022/05/16 06:51:39;;;;;;;5.07;2.22;;;21.40;52.60;;;;;;5092377;28;20290;-68
2022/05/16 06:54:05;;;;;;;2.47;1.80;;;21.50;52.70;;;;;;5093391;28;20649;-68
2022/05/16 06:56:30;;;;;;;5.03;2.97;;;21.40;52.80;;;;;;5092982;28;20178;-67
2022/05/16 06:58:56;;;;;;;4.32;2.67;;;21.50;52.90;;;;;;5092869;28;20580;-68
2022/05/16 07:01:21;;;;;;;6.78;2.17;;;21.50;53.00;;;;;;5093294;28;20170;-68
2022/05/16 07:03:47;;;;;;;6.55;2.10;;;21.50;53.00;;;;;;5092241;28;20178;-67
2022/05/16 07:06:14;;;;;;;3.40;2.28;;;21.60;53.10;;;;;;5092933;28;20226;-67
2022/05/16 07:08:40;;;;;;;3.75;2.45;;;21.60;53.00;;;;;;5092773;28;20173;-69
2022/05/16 07:11:06;;;;;;;4.47;2.10;;;21.60;53.00;;;;;;5092655;28;20205;-70
2022/05/16 07:13:31;;;;;;;3.90;2.13;;;21.60;53.10;;;;;;5093092;28;20253;-71
2022/05/16 07:15:57;;;;;;;5.25;2.38;;;21.60;53.10;;;;;;5092712;28;20257;-69
2022/05/16 07:18:23;;;;;;;4.32;2.40;;;21.70;53.30;;;;;;5092066;28;20210;-70
2022/05/16 07:20:55;;;;;;;3.15;2.30;;;21.60;53.30;;;;;;5092751;28;20698;-71
2022/05/16 07:23:21;;;;;;;3.28;2.05;;;21.60;53.30;;;;;;5092882;28;20239;-70
2022/05/16 07:28:31;;;;;;;5.57;2.40;;;21.70;53.40;;;;;;5093034;28;20242;-70
2022/05/16 07:30:56;;;;;;;3.45;2.63;;;21.60;53.40;;;;;;5091489;28;20201;-68
2022/05/16 07:33:22;;;;;;;4.35;3.08;;;21.60;53.40;;;;;;5092040;28;20181;-69
2022/05/16 07:35:52;;;;;;;3.13;1.98;;;21.60;53.40;;;;;;5092306;28;20264;-66
2022/05/16 07:38:21;;;;;;;6.43;3.03;;;21.70;53.40;;;;;;5092844;28;20237;-68
2022/05/16 07:40:47;;;;;;;5.15;2.00;;;21.70;53.50;;;;;;5091769;28;20255;-67
2022/05/16 07:43:12;;;;;;;5.13;2.40;;;21.70;53.50;;;;;;5092619;28;20642;-66
2022/05/16 07:45:38;;;;;;;3.47;2.17;;;21.70;53.50;;;;;;5091964;28;20698;-66
2022/05/16 07:48:04;;;;;;;5.82;2.55;;;21.70;53.40;;;;;;5092714;28;20644;-67
2022/05/16 07:50:33;;;;;;;4.15;2.13;;;21.70;53.40;;;;;;5092732;28;20470;-67
2022/05/16 07:52:59;;;;;;;6.57;2.67;;;21.70;53.40;;;;;;5092031;28;20260;-67
2022/05/16 07:55:25;;;;;;;4.28;2.20;;;21.60;53.40;;;;;;5092560;28;20197;-67
2022/05/16 07:57:53;;;;;;;7.70;2.75;;;21.60;53.40;;;;;;5092562;28;20226;-67
2022/05/16 08:00:20;;;;;;;3.63;2.70;;;21.60;53.40;;;;;;5092011;28;20181;-67
2022/05/16 08:02:45;;;;;;;5.20;2.15;;;21.70;53.30;;;;;;5092185;28;20177;-66
2022/05/16 08:05:12;;;;;;;4.30;2.53;;;21.70;53.30;;;;;;5092981;28;20183;-67
2022/05/16 08:10:29;;;;;;;4.97;2.50;;;21.70;53.20;;;;;;5091489;28;20230;-67
2022/05/16 08:10:29;;;;;;;3.78;2.28;;;21.70;53.20;;;;;;5092768;28;20190;-68
2022/05/16 08:12:55;;;;;;;5.75;2.38;;;21.70;53.30;;;;;;5092298;28;20177;-68
2022/05/16 08:15:20;;;;;;;4.13;2.30;;;21.70;53.30;;;;;;5091804;28;20191;-68
2022/05/16 08:17:46;;;;;;;6.43;2.63;;;21.70;53.20;;;;;;5092306;28;20258;-68
2022/05/16 08:20:11;;;;;;;7.55;2.78;;;21.70;53.20;;;;;;5092510;28;20210;-67
2022/05/16 08:22:37;;;;;;;8.75;3.33;;;21.70;53.10;;;;;;5091423;28;20238;-68
2022/05/16 08:25:03;;;;;;;4.07;2.30;;;21.60;53.10;;;;;;5092341;28;20516;-68
2022/05/16 08:27:28;;;;;;;4.30;2.22;;;21.70;53.10;;;;;;5092421;28;20643;-68
2022/05/16 08:29:54;;;;;;;6.53;3.00;;;21.70;53.00;;;;;;5091416;28;20568;-67
2022/05/16 08:32:25;;;;;;;4.00;2.17;;;21.70;53.00;;;;;;5092450;28;20190;-66
2022/05/16 08:34:51;;;;;;;4.57;2.40;;;21.70;53.00;;;;;;5091678;28;20170;-67
2022/05/16 08:40:03;;;;;;;4.75;2.20;;;21.80;52.90;;;;;;5092407;28;20180;-66
2022/05/16 08:42:51;;;;;;;3.60;2.10;;;21.80;52.90;;;;;;5093935;28;20174;-67
2022/05/16 08:45:17;;;;;;;3.72;2.28;;;21.80;52.90;;;;;;5096093;28;20170;-67
2022/05/16 08:47:55;;;;;;;4.70;2.60;;;21.80;52.90;;;;;;5095461;28;20538;-66
2022/05/16 08:50:46;;;;;;;4.13;2.70;;;21.80;52.90;;;;;;5095156;28;20528;-67
2022/05/16 08:53:17;;;;;;;5.10;2.88;;;21.80;52.90;;;;;;5095203;28;20185;-67
2022/05/16 08:55:48;;;;;;;2.70;2.38;;;21.80;52.90;;;;;;5094364;28;20657;-67
2022/05/16 08:58:35;;;;;;;3.40;2.80;;;21.80;52.80;;;;;;5093779;28;20255;-67
2022/05/16 09:01:15;;;;;;;4.10;2.53;;;21.80;52.80;;;;;;5095667;28;20174;-66
2022/05/16 09:03:45;;;;;;;5.63;2.10;;;21.80;52.80;;;;;;5093793;28;20180;-66
2022/05/16 09:06:27;;;;;;;3.33;2.20;;;21.80;52.80;;;;;;5095243;28;20618;-66
2022/05/16 09:08:55;;;;;;;3.08;2.20;;;21.80;52.80;;;;;;5094398;28;20169;-67
2022/05/16 09:11:39;;;;;;;3.50;2.53;;;21.80;52.80;;;;;;5094708;28;20209;-69
2022/05/16 09:14:40;;;;;;;4.53;2.33;;;21.90;52.80;;;;;;5095597;28;20269;-68
2022/05/16 09:17:21;;;;;;;4.47;2.55;;;21.90;52.70;;;;;;5056981;28;20225;-68
2022/05/16 09:20:05;;;;;;;3.63;2.50;;;22.00;52.60;;;;;;5093943;28;20181;-68
2022/05/16 09:22:44;;;;;;;5.53;2.70;;;22.00;52.60;;;;;;5095472;28;20219;-69
2022/05/16 09:25:19;;;;;;;5.35;2.65;;;22.00;52.60;;;;;;5093515;28;20265;-68
2022/05/16 09:30:36;;;;;;;2.25;2.00;;;22.00;52.60;;;;;;5094887;28;20219;-67
2022/05/16 09:33:05;;;;;;;4.20;2.30;;;22.00;52.70;;;;;;5093195;28;20178;-67
2022/05/16 09:35:37;;;;;;;2.55;2.35;;;22.00;52.70;;;;;;5095046;28;20538;-68
2022/05/16 09:38:03;;;;;;;5.13;2.65;;;22.00;52.70;;;;;;5094966;28;20250;-67
2022/05/16 09:40:40;;;;;;;5.32;2.55;;;22.00;52.70;;;;;;5094202;28;20203;-67
2022/05/16 09:43:19;;;;;;;3.42;2.50;;;22.00;52.70;;;;;;5095066;28;20181;-66
2022/05/16 09:45:49;;;;;;;4.25;2.38;;;22.00;52.60;;;;;;5093929;28;20169;-66
2022/05/16 09:48:16;;;;;;;4.10;2.38;;;22.10;52.60;;;;;;5093392;28;20174;-67
2022/05/16 09:50:45;;;;;;;4.60;2.35;;;22.10;52.60;;;;;;5094632;28;20185;-67
2022/05/16 09:53:14;;;;;;;2.45;2.20;;;22.10;52.50;;;;;;5091758;28;20178;-68
2022/05/16 09:55:57;;;;;;;4.40;2.35;;;22.10;52.50;;;;;;5094524;28;20240;-67
2022/05/16 09:58:25;;;;;;;3.20;2.13;;;22.20;52.50;;;;;;5093358;28;20212;-67
2022/05/16 10:01:07;;;;;;;2.58;2.30;;;22.20;52.40;;;;;;5093506;28;20174;-66
2022/05/16 10:03:37;;;;;;;3.13;2.20;;;22.20;52.40;;;;;;5094418;28;20174;-67
2022/05/16 10:06:09;;;;;;;4.65;2.42;;;22.20;52.50;;;;;;5094399;28;20291;-66
2022/05/16 10:08:38;;;;;;;3.03;2.40;;;22.20;52.60;;;;;;5092468;28;20170;-68
2022/05/16 10:11:08;;;;;;;4.00;2.53;;;22.20;52.40;;;;;;5094419;28;20205;-70
2022/05/16 10:13:34;;;;;;;4.15;2.20;;;22.20;52.40;;;;;;5093670;28;20921;-69
2022/05/16 10:16:02;;;;;;;3.22;2.67;;;22.20;52.50;;;;;;5092821;28;20166;-68
2022/05/16 10:18:28;;;;;;;2.85;2.20;;;22.30;52.50;;;;;;5092901;28;20248;-68
2022/05/16 10:20:58;;;;;;;3.08;2.28;;;22.30;52.40;;;;;;5092274;28;20205;-69
2022/05/16 10:23:32;;;;;;;2.80;2.40;;;22.40;52.30;;;;;;5094437;28;20174;-69
2022/05/16 10:26:00;;;;;;;3.80;2.38;;;22.50;52.30;;;;;;5093764;28;20638;-68
2022/05/16 10:28:30;;;;;;;3.33;2.53;;;22.40;52.40;;;;;;5091845;28;20249;-67
2022/05/16 10:33:40;;;;;;;5.05;2.30;;;22.30;52.50;;;;;;5092655;28;20682;-66
2022/05/16 10:36:09;;;;;;;3.20;2.20;;;22.30;52.60;;;;;;5091997;28;20209;-67
2022/05/16 10:38:52;;;;;;;2.97;2.20;;;22.30;52.60;;;;;;5092208;28;20694;-67
2022/05/16 10:41:26;;;;;;;2.80;2.40;;;22.30;52.60;;;;;;5093072;28;20173;-67
2022/05/16 10:44:00;;;;;;;4.03;2.03;;;22.40;52.60;;;;;;5092442;28;20181;-66
2022/05/16 10:46:32;;;;;;;2.85;2.10;;;22.40;52.50;;;;;;5093738;28;20174;-66
2022/05/16 10:49:02;;;;;;;3.35;2.33;;;22.40;52.50;;;;;;5092678;28;20178;-65
2022/05/16 10:51:38;;;;;;;2.88;2.33;;;22.50;52.40;;;;;;5092420;28;20176;-65
2022/05/16 10:54:09;;;;;;;3.83;2.40;;;22.50;52.60;;;;;;5092241;28;20212;-66
2022/05/16 10:56:55;;;;;;;4.65;2.85;;;22.60;53.20;;;;;;5092509;28;20588;-69
2022/05/16 11:00:06;;;;;;;2.72;2.10;;;22.50;52.60;;;;;;5092450;28;20201;-71
2022/05/16 11:02:40;;;;;;;7.63;2.03;;;22.60;52.80;;;;;;5059858;28;20182;-68
2022/05/16 11:05:26;;;;;;;2.72;2.20;;;22.60;53.20;;;;;;5093330;28;20172;-68
2022/05/16 11:08:22;;;;;;;5.05;2.03;;;22.60;53.30;;;;;;5093083;28;20197;-68
2022/05/16 11:11:04;;;;;;;3.25;2.15;;;22.60;53.40;;;;;;5092466;28;20177;-68
2022/05/16 11:13:48;;;;;;;5.00;2.60;;;22.70;52.90;;;;;;5092062;28;20178;-71
2022/05/16 11:16:29;;;;;;;6.30;2.28;;;22.70;52.90;;;;;;5091944;28;20523;-68
2022/05/16 11:18:57;;;;;;;5.00;2.42;;;22.70;52.80;;;;;;5091247;28;20274;-68
2022/05/16 11:21:47;;;;;;;5.40;2.42;;;22.80;52.80;;;;;;5092037;28;20170;-68
2022/05/16 11:24:42;;;;;;;6.47;3.00;;;22.90;52.80;;;;;;5091386;28;20178;-72
2022/05/16 11:27:20;;;;;;;7.40;2.90;;;22.80;52.80;;;;;;5092283;28;20173;-70
2022/05/16 11:30:28;;;;;;;8.13;3.03;;;22.80;52.90;;;;;;5091591;28;20173;-66
2022/05/16 11:33:14;;;;;;;6.30;2.78;;;22.80;53.10;;;;;;5085195;28;20188;-66
2022/05/16 11:35:43;;;;;;;5.60;2.80;;;22.80;53.10;;;;;;5092728;28;20185;-66
2022/05/16 11:38:40;;;;;;;9.70;3.08;;;22.80;53.20;;;;;;5092064;28;20225;-74
2022/05/16 11:41:23;;;;;;;6.78;3.17;;;22.80;53.20;;;;;;5067758;28;20185;-68
2022/05/16 11:43:50;;;;;;;6.40;3.40;;;22.80;53.30;;;;;;5090152;28;20654;-67
2022/05/16 11:46:47;;;;;;;8.27;3.05;;;22.70;53.30;;;;;;5092017;28;20180;-67
2022/05/16 11:49:40;;;;;;;6.82;2.78;;;22.60;53.40;;;;;;5092688;28;20183;-67
2022/05/16 11:52:12;;;;;;;5.90;3.10;;;22.60;53.50;;;;;;5092117;28;20258;-68
2022/05/16 11:54:46;;;;;;;6.60;3.05;;;22.50;53.50;;;;;;5092428;28;20633;-68
2022/05/16 12:02:52;;;;;;;7.18;3.58;;;22.40;53.60;;;;;;5091449;28;20166;-68
2022/05/16 12:05:21;;;;;;;6.80;3.47;;;22.40;53.60;;;;;;5091302;28;20182;-68
2022/05/16 12:07:57;;;;;;;5.57;3.00;;;22.40;53.70;;;;;;5091284;28;20213;-68
2022/05/16 12:10:27;;;;;;;3.40;2.63;;;22.30;53.70;;;;;;5091442;28;20173;-69
2022/05/16 12:13:33;;;;;;;6.53;3.10;;;22.30;53.70;;;;;;5091481;28;20182;-69
2022/05/16 12:16:13;;;;;;;6.47;3.00;;;22.30;53.70;;;;;;5091959;28;20204;-69
2022/05/16 12:18:51;;;;;;;4.20;2.53;;;22.30;53.70;;;;;;5095983;28;20232;-69
2022/05/16 12:21:21;;;;;;;4.22;2.38;;;22.30;53.70;;;;;;5096187;28;20177;-70
2022/05/16 12:23:50;;;;;;;8.32;2.97;;;22.40;53.60;;;;;;5096264;28;20189;-69
2022/05/16 12:26:38;;;;;;;5.25;2.88;;;22.50;53.70;;;;;;5096336;28;20180;-69
2022/05/16 12:29:13;;;;;;;4.90;3.20;;;22.60;53.40;;;;;;5066677;28;20186;-69
2022/05/16 12:31:44;;;;;;;6.53;2.92;;;22.60;53.40;;;;;;5096045;28;20280;-71
2022/05/16 12:34:10;;;;;;;4.82;2.53;;;22.60;53.30;;;;;;5095621;28;20184;-69
2022/05/16 12:36:35;;;;;;;5.38;2.90;;;22.60;53.30;;;;;;5095779;28;20264;-69
2022/05/16 12:39:07;;;;;;;3.95;2.50;;;22.60;53.30;;;;;;5096100;28;20263;-71
2022/05/16 12:42:00;;;;;;;2.67;2.38;;;22.60;53.40;;;;;;5077928;28;20174;-68
2022/05/16 12:44:35;;;;;;;4.85;2.85;;;22.60;53.40;;;;;;5065321;28;20537;-68
2022/05/16 12:47:09;;;;;;;3.85;2.72;;;22.60;53.50;;;;;;5095959;28;20197;-68
2022/05/16 12:49:46;;;;;;;4.68;2.63;;;22.60;53.60;;;;;;5094950;28;20522;-68
2022/05/16 12:52:15;;;;;;;6.57;3.10;;;22.60;53.70;;;;;;5094861;28;20210;-69
2022/05/16 12:54:52;;;;;;;5.20;2.78;;;22.60;53.70;;;;;;5095655;28;20173;-70
2022/05/16 12:57:21;;;;;;;5.35;2.80;;;22.50;53.80;;;;;;5093963;28;20181;-71
2022/05/16 13:00:10;;;;;;;3.13;2.60;;;22.50;53.90;;;;;;5095654;28;20170;-69
2022/05/16 13:02:54;;;;;;;3.92;2.88;;;22.50;53.90;;;;;;5094562;28;20290;-69
2022/05/16 13:05:34;;;;;;;5.47;3.10;;;22.50;54.00;;;;;;5094602;28;20162;-69
2022/05/16 13:08:32;;;;;;;4.53;2.75;;;22.50;54.00;;;;;;5095874;28;20549;-70
2022/05/16 13:11:06;;;;;;;3.90;2.63;;;22.50;54.10;;;;;;5093470;28;20173;-71
2022/05/16 13:13:38;;;;;;;3.78;3.13;;;22.50;54.20;;;;;;5095674;28;20172;-70
2022/05/16 13:16:25;;;;;;;4.88;2.80;;;22.50;54.20;;;;;;5095320;28;20647;-69
2022/05/16 13:19:01;;;;;;;4.70;2.78;;;22.40;54.20;;;;;;5093854;28;20197;-72
2022/05/16 13:21:42;;;;;;;3.65;2.60;;;22.40;54.30;;;;;;5094255;28;20170;-71
2022/05/16 13:24:12;;;;;;;4.43;2.90;;;22.40;54.40;;;;;;5093628;28;20174;-71
2022/05/16 13:29:22;;;;;;;5.28;3.13;;;22.40;54.40;;;;;;5093854;28;20257;-71
2022/05/16 13:31:50;;;;;;;3.63;2.47;;;22.40;54.40;;;;;;5094101;28;20257;-68
2022/05/16 13:34:48;;;;;;;3.25;2.42;;;22.40;54.30;;;;;;5095210;28;20174;-69
2022/05/16 13:37:23;;;;;;;2.85;2.65;;;22.50;54.30;;;;;;5094603;28;20206;-70
2022/05/16 13:39:50;;;;;;;4.30;2.58;;;22.50;54.30;;;;;;5094856;28;20180;-68
2022/05/16 13:42:21;;;;;;;4.32;2.63;;;22.40;54.30;;;;;;5094817;28;20511;-69
2022/05/16 13:44:47;;;;;;;2.85;2.50;;;22.40;54.40;;;;;;5092922;28;20180;-68